sensor_id;sensor_type;location;lat;lon;timestamp;pressure;altitude;pressure_sealevel;temperature;humidity
77023;BME280;65952;51.440;-2.054;2023-04-26T00:00:14;100526.44;;;6.90;58.31
77023;BME280;65952;51.440;-2.054;2023-04-26T00:02:40;100527.25;;;6.90;58.69
77023;BME280;65952;51.440;-2.054;2023-04-26T00:05:06;100527.00;;;6.93;58.57
77023;BME280;65952;51.440;-2.054;2023-04-26T00:07:31;100512.94;;;6.91;58.34
77023;BME280;65952;51.440;-2.054;2023-04-26T00:09:58;100507.03;;;6.88;58.44
77023;BME280;65952;51.440;-2.054;2023-04-26T00:12:23;100516.88;;;6.87;58.57
77023;BME280;65952;51.440;-2.054;2023-04-26T00:15:08;100521.66;;;6.83;58.91
77023;BME280;65952;51.440;-2.054;2023-04-26T00:17:34;100521.22;;;6.78;58.98
77023;BME280;65952;51.440;-2.054;2023-04-26T00:19:59;100525.69;;;6.78;59.21
77023;BME280;65952;51.440;-2.054;2023-04-26T00:22:25;100524.16;;;6.75;59.28
77023;BME280;65952;51.440;-2.054;2023-04-26T00:24:51;100523.47;;;6.73;59.46
77023;BME280;65952;51.440;-2.054;2023-04-26T00:27:16;100514.03;;;6.79;59.52
77023;BME280;65952;51.440;-2.054;2023-04-26T00:29:41;100518.69;;;6.77;59.78
77023;BME280;65952;51.440;-2.054;2023-04-26T00:32:07;100515.31;;;6.75;59.88
77023;BME280;65952;51.440;-2.054;2023-04-26T00:34:33;100509.84;;;6.76;59.99
77023;BME280;65952;51.440;-2.054;2023-04-26T00:36:59;100513.63;;;6.74;60.26
77023;BME280;65952;51.440;-2.054;2023-04-26T00:39:24;100514.59;;;6.73;60.17
77023;BME280;65952;51.440;-2.054;2023-04-26T00:41:50;100511.25;;;6.71;60.10
77023;BME280;65952;51.440;-2.054;2023-04-26T00:44:16;100516.59;;;6.71;59.84
77023;BME280;65952;51.440;-2.054;2023-04-26T00:46:42;100515.59;;;6.72;59.12
77023;BME280;65952;51.440;-2.054;2023-04-26T00:49:07;100517.16;;;6.74;59.22
77023;BME280;65952;51.440;-2.054;2023-04-26T00:51:34;100517.69;;;6.78;59.09
77023;BME280;65952;51.440;-2.054;2023-04-26T00:54:00;100515.75;;;6.80;59.03
77023;BME280;65952;51.440;-2.054;2023-04-26T00:56:26;100507.03;;;6.88;58.87
77023;BME280;65952;51.440;-2.054;2023-04-26T00:58:51;100505.09;;;6.90;58.98
77023;BME280;65952;51.440;-2.054;2023-04-26T01:01:16;100504.50;;;6.86;59.17
77023;BME280;65952;51.440;-2.054;2023-04-26T01:03:42;100501.56;;;6.79;59.46
77023;BME280;65952;51.440;-2.054;2023-04-26T01:06:10;100496.22;;;6.79;59.91
77023;BME280;65952;51.440;-2.054;2023-04-26T01:08:36;100509.00;;;6.76;60.30
77023;BME280;65952;51.440;-2.054;2023-04-26T01:11:03;100509.25;;;6.73;60.51
77023;BME280;65952;51.440;-2.054;2023-04-26T01:13:30;100515.31;;;6.75;60.82
77023;BME280;65952;51.440;-2.054;2023-04-26T01:15:57;100509.69;;;6.78;60.94
77023;BME280;65952;51.440;-2.054;2023-04-26T01:18:23;100514.75;;;6.71;61.04
77023;BME280;65952;51.440;-2.054;2023-04-26T01:20:48;100511.66;;;6.66;61.33
77023;BME280;65952;51.440;-2.054;2023-04-26T01:23:16;100512.34;;;6.58;61.82
77023;BME280;65952;51.440;-2.054;2023-04-26T01:25:41;100510.78;;;6.56;61.78
77023;BME280;65952;51.440;-2.054;2023-04-26T01:28:07;100508.13;;;6.56;61.61
77023;BME280;65952;51.440;-2.054;2023-04-26T01:30:32;100508.94;;;6.56;61.63
77023;BME280;65952;51.440;-2.054;2023-04-26T01:32:57;100506.44;;;6.55;61.80
77023;BME280;65952;51.440;-2.054;2023-04-26T01:35:23;100500.81;;;6.48;62.12
77023;BME280;65952;51.440;-2.054;2023-04-26T01:37:48;100503.16;;;6.41;62.33
77023;BME280;65952;51.440;-2.054;2023-04-26T01:40:13;100500.09;;;6.46;61.90
77023;BME280;65952;51.440;-2.054;2023-04-26T01:42:39;100496.44;;;6.47;62.16
77023;BME280;65952;51.440;-2.054;2023-04-26T01:45:05;100496.84;;;6.42;62.34
77023;BME280;65952;51.440;-2.054;2023-04-26T01:47:30;100502.19;;;6.42;62.45
77023;BME280;65952;51.440;-2.054;2023-04-26T01:49:56;100497.53;;;6.34;62.36
77023;BME280;65952;51.440;-2.054;2023-04-26T01:52:21;100501.03;;;6.35;62.39
77023;BME280;65952;51.440;-2.054;2023-04-26T01:54:46;100498.78;;;6.30;62.40
77023;BME280;65952;51.440;-2.054;2023-04-26T01:57:12;100495.88;;;6.43;62.00
77023;BME280;65952;51.440;-2.054;2023-04-26T01:59:37;100501.50;;;6.40;62.23
77023;BME280;65952;51.440;-2.054;2023-04-26T02:02:03;100509.75;;;6.37;62.43
77023;BME280;65952;51.440;-2.054;2023-04-26T02:04:28;100508.06;;;6.36;62.38
77023;BME280;65952;51.440;-2.054;2023-04-26T02:06:54;100498.13;;;6.38;62.35
77023;BME280;65952;51.440;-2.054;2023-04-26T02:09:19;100498.38;;;6.35;62.45
77023;BME280;65952;51.440;-2.054;2023-04-26T02:11:44;100496.13;;;6.30;62.79
77023;BME280;65952;51.440;-2.054;2023-04-26T02:14:10;100488.56;;;6.36;62.09
77023;BME280;65952;51.440;-2.054;2023-04-26T02:16:36;100494.19;;;6.42;61.83
77023;BME280;65952;51.440;-2.054;2023-04-26T02:19:03;100496.28;;;6.39;61.86
77023;BME280;65952;51.440;-2.054;2023-04-26T02:21:29;100503.44;;;6.38;61.74
77023;BME280;65952;51.440;-2.054;2023-04-26T02:23:55;100498.66;;;6.32;61.96
77023;BME280;65952;51.440;-2.054;2023-04-26T02:26:21;100502.44;;;6.29;62.28
77023;BME280;65952;51.440;-2.054;2023-04-26T02:28:46;100501.03;;;6.25;62.46
77023;BME280;65952;51.440;-2.054;2023-04-26T02:31:12;100498.91;;;6.29;62.50
77023;BME280;65952;51.440;-2.054;2023-04-26T02:33:37;100490.78;;;6.30;62.66
77023;BME280;65952;51.440;-2.054;2023-04-26T02:36:04;100490.38;;;6.35;62.53
77023;BME280;65952;51.440;-2.054;2023-04-26T02:38:32;100483.91;;;6.38;62.61
77023;BME280;65952;51.440;-2.054;2023-04-26T02:40:59;100489.53;;;6.34;62.57
77023;BME280;65952;51.440;-2.054;2023-04-26T02:43:24;100478.16;;;6.32;62.56
77023;BME280;65952;51.440;-2.054;2023-04-26T02:45:50;100478.16;;;6.32;62.71
77023;BME280;65952;51.440;-2.054;2023-04-26T02:48:15;100486.03;;;6.34;62.84
77023;BME280;65952;51.440;-2.054;2023-04-26T02:50:41;100478.44;;;6.29;63.00
77023;BME280;65952;51.440;-2.054;2023-04-26T02:53:06;100466.66;;;6.32;62.82
77023;BME280;65952;51.440;-2.054;2023-04-26T02:55:32;100478.28;;;6.31;63.17
77023;BME280;65952;51.440;-2.054;2023-04-26T02:57:57;100469.47;;;6.30;63.20
77023;BME280;65952;51.440;-2.054;2023-04-26T03:00:23;100472.25;;;6.29;63.10
77023;BME280;65952;51.440;-2.054;2023-04-26T03:02:49;100461.00;;;6.15;63.38
77023;BME280;65952;51.440;-2.054;2023-04-26T03:05:14;100461.00;;;6.15;63.43
77023;BME280;65952;51.440;-2.054;2023-04-26T03:07:40;100455.81;;;6.24;63.16
77023;BME280;65952;51.440;-2.054;2023-04-26T03:10:05;100452.03;;;6.16;63.55
77023;BME280;65952;51.440;-2.054;2023-04-26T03:12:32;100448.69;;;6.24;63.46
77023;BME280;65952;51.440;-2.054;2023-04-26T03:14:58;100458.38;;;6.25;63.19
77023;BME280;65952;51.440;-2.054;2023-04-26T03:17:23;100454.59;;;6.28;63.28
77023;BME280;65952;51.440;-2.054;2023-04-26T03:19:48;100453.59;;;6.29;63.25
77023;BME280;65952;51.440;-2.054;2023-04-26T03:22:14;100458.38;;;6.25;63.25
77023;BME280;65952;51.440;-2.054;2023-04-26T03:24:43;100455.00;;;6.23;63.78
77023;BME280;65952;51.440;-2.054;2023-04-26T03:27:08;100454.69;;;6.26;64.08
77023;BME280;65952;51.440;-2.054;2023-04-26T03:29:34;100452.59;;;6.20;64.15
77023;BME280;65952;51.440;-2.054;2023-04-26T03:32:00;100451.88;;;6.18;64.35
77023;BME280;65952;51.440;-2.054;2023-04-26T03:34:25;100442.16;;;6.07;64.89
77023;BME280;65952;51.440;-2.054;2023-04-26T03:36:51;100441.72;;;6.02;65.09
77023;BME280;65952;51.440;-2.054;2023-04-26T03:39:17;100438.22;;;6.01;64.81
77023;BME280;65952;51.440;-2.054;2023-04-26T03:41:42;100434.72;;;6.01;64.56
77023;BME280;65952;51.440;-2.054;2023-04-26T03:44:07;100430.38;;;6.00;64.59
77023;BME280;65952;51.440;-2.054;2023-04-26T03:46:33;100434.72;;;6.01;65.00
77023;BME280;65952;51.440;-2.054;2023-04-26T03:48:58;100430.03;;;5.93;64.96
77023;BME280;65952;51.440;-2.054;2023-04-26T03:51:24;100435.75;;;5.89;65.24
77023;BME280;65952;51.440;-2.054;2023-04-26T03:53:49;100429.97;;;5.83;65.47
77023;BME280;65952;51.440;-2.054;2023-04-26T03:56:15;100430.41;;;5.89;65.10
77023;BME280;65952;51.440;-2.054;2023-04-26T03:58:42;100421.56;;;5.78;65.56
77023;BME280;65952;51.440;-2.054;2023-04-26T04:01:07;100414.53;;;5.77;65.45
77023;BME280;65952;51.440;-2.054;2023-04-26T04:03:32;100407.78;;;5.73;65.84
77023;BME280;65952;51.440;-2.054;2023-04-26T04:05:58;100405.13;;;5.73;65.78
77023;BME280;65952;51.440;-2.054;2023-04-26T04:08:23;100406.81;;;5.74;65.90
77023;BME280;65952;51.440;-2.054;2023-04-26T04:10:49;100402.31;;;5.65;66.43
77023;BME280;65952;51.440;-2.054;2023-04-26T04:13:14;100401.50;;;5.74;66.11
77023;BME280;65952;51.440;-2.054;2023-04-26T04:15:40;100396.16;;;5.74;66.04
77023;BME280;65952;51.440;-2.054;2023-04-26T04:18:05;100392.53;;;5.75;66.37
77023;BME280;65952;51.440;-2.054;2023-04-26T04:20:31;100390.97;;;5.73;66.44
77023;BME280;65952;51.440;-2.054;2023-04-26T04:22:56;100391.66;;;5.65;66.87
77023;BME280;65952;51.440;-2.054;2023-04-26T04:25:26;100389.38;;;5.60;67.05
77023;BME280;65952;51.440;-2.054;2023-04-26T04:27:51;100391.91;;;5.62;67.34
77023;BME280;65952;51.440;-2.054;2023-04-26T04:30:17;100394.28;;;5.55;67.50
77023;BME280;65952;51.440;-2.054;2023-04-26T04:32:42;100393.41;;;5.54;67.60
77023;BME280;65952;51.440;-2.054;2023-04-26T04:35:09;100387.06;;;5.46;67.90
77023;BME280;65952;51.440;-2.054;2023-04-26T04:37:35;100391.13;;;5.40;68.25
77023;BME280;65952;51.440;-2.054;2023-04-26T04:40:00;100390.84;;;5.43;68.07
77023;BME280;65952;51.440;-2.054;2023-04-26T04:42:25;100385.78;;;5.40;68.22
77023;BME280;65952;51.440;-2.054;2023-04-26T04:44:58;100383.53;;;5.35;68.44
77023;BME280;65952;51.440;-2.054;2023-04-26T04:47:23;100387.28;;;5.33;68.69
77023;BME280;65952;51.440;-2.054;2023-04-26T04:49:50;100383.13;;;5.40;68.37
77023;BME280;65952;51.440;-2.054;2023-04-26T04:52:17;100397.84;;;5.44;68.60
77023;BME280;65952;51.440;-2.054;2023-04-26T04:54:44;100386.25;;;5.45;68.32
77023;BME280;65952;51.440;-2.054;2023-04-26T04:57:09;100389.63;;;5.47;68.49
77023;BME280;65952;51.440;-2.054;2023-04-26T04:59:35;100384.00;;;5.50;68.36
77023;BME280;65952;51.440;-2.054;2023-04-26T05:02:00;100384.53;;;5.44;68.66
77023;BME280;65952;51.440;-2.054;2023-04-26T05:04:26;100387.41;;;5.52;68.66
77023;BME280;65952;51.440;-2.054;2023-04-26T05:06:51;100396.06;;;5.54;68.38
77023;BME280;65952;51.440;-2.054;2023-04-26T05:09:16;100397.69;;;5.67;68.23
77023;BME280;65952;51.440;-2.054;2023-04-26T05:11:42;100400.09;;;5.70;68.10
77023;BME280;65952;51.440;-2.054;2023-04-26T05:14:07;100395.88;;;5.67;68.31
77023;BME280;65952;51.440;-2.054;2023-04-26T05:16:32;100391.13;;;5.71;67.92
77023;BME280;65952;51.440;-2.054;2023-04-26T05:18:58;100391.53;;;5.66;68.23
77023;BME280;65952;51.440;-2.054;2023-04-26T05:21:23;100385.94;;;5.79;67.78
77023;BME280;65952;51.440;-2.054;2023-04-26T05:23:48;100392.81;;;5.82;67.79
77023;BME280;65952;51.440;-2.054;2023-04-26T05:26:15;100396.34;;;5.92;67.46
77023;BME280;65952;51.440;-2.054;2023-04-26T05:28:41;100401.84;;;5.91;67.48
77023;BME280;65952;51.440;-2.054;2023-04-26T05:31:08;100403.72;;;6.00;67.32
77023;BME280;65952;51.440;-2.054;2023-04-26T05:33:33;100416.31;;;5.98;67.34
77023;BME280;65952;51.440;-2.054;2023-04-26T05:35:59;100409.75;;;6.02;67.35
77023;BME280;65952;51.440;-2.054;2023-04-26T05:38:26;100412.41;;;6.02;67.28
77023;BME280;65952;51.440;-2.054;2023-04-26T05:40:51;100412.56;;;6.00;67.50
77023;BME280;65952;51.440;-2.054;2023-04-26T05:43:17;100412.16;;;6.05;67.30
77023;BME280;65952;51.440;-2.054;2023-04-26T05:45:52;100410.03;;;5.99;67.66
77023;BME280;65952;51.440;-2.054;2023-04-26T05:48:22;100408.50;;;6.06;67.54
77023;BME280;65952;51.440;-2.054;2023-04-26T05:50:48;100407.13;;;6.12;67.44
77023;BME280;65952;51.440;-2.054;2023-04-26T05:53:14;100400.66;;;6.14;67.42
77023;BME280;65952;51.440;-2.054;2023-04-26T05:55:43;100400.09;;;6.11;67.64
77023;BME280;65952;51.440;-2.054;2023-04-26T05:58:08;100406.13;;;6.13;67.33
77023;BME280;65952;51.440;-2.054;2023-04-26T06:00:34;100405.84;;;6.16;67.45
77023;BME280;65952;51.440;-2.054;2023-04-26T06:02:59;100408.00;;;6.32;66.98
77023;BME280;65952;51.440;-2.054;2023-04-26T06:05:25;100398.75;;;6.46;66.38
77023;BME280;65952;51.440;-2.054;2023-04-26T06:07:51;100400.84;;;6.52;66.17
77023;BME280;65952;51.440;-2.054;2023-04-26T06:10:17;100397.06;;;6.55;66.49
77023;BME280;65952;51.440;-2.054;2023-04-26T06:12:43;100396.78;;;6.58;66.15
77023;BME280;65952;51.440;-2.054;2023-04-26T06:15:09;100394.97;;;6.68;65.93
77023;BME280;65952;51.440;-2.054;2023-04-26T06:17:35;100401.28;;;6.67;65.84
77023;BME280;65952;51.440;-2.054;2023-04-26T06:20:00;100398.47;;;6.78;65.69
77023;BME280;65952;51.440;-2.054;2023-04-26T06:22:26;100396.50;;;6.80;65.55
77023;BME280;65952;51.440;-2.054;2023-04-26T06:24:51;100386.78;;;6.89;65.35
77023;BME280;65952;51.440;-2.054;2023-04-26T06:27:16;100395.91;;;6.96;65.23
77023;BME280;65952;51.440;-2.054;2023-04-26T06:29:42;100391.16;;;7.00;65.34
77023;BME280;65952;51.440;-2.054;2023-04-26T06:32:08;100390.28;;;7.09;65.32
77023;BME280;65952;51.440;-2.054;2023-04-26T06:34:33;100390.41;;;7.18;65.05
77023;BME280;65952;51.440;-2.054;2023-04-26T06:36:59;100394.91;;;7.17;65.12
77023;BME280;65952;51.440;-2.054;2023-04-26T06:39:24;100393.38;;;7.14;64.84
77023;BME280;65952;51.440;-2.054;2023-04-26T06:41:49;100394.88;;;7.27;64.48
77023;BME280;65952;51.440;-2.054;2023-04-26T06:44:15;100396.31;;;7.21;64.82
77023;BME280;65952;51.440;-2.054;2023-04-26T06:46:40;100402.94;;;7.17;64.99
77023;BME280;65952;51.440;-2.054;2023-04-26T06:49:05;100400.66;;;7.22;64.98
77023;BME280;65952;51.440;-2.054;2023-04-26T06:51:31;100404.88;;;7.15;64.99
77023;BME280;65952;51.440;-2.054;2023-04-26T06:53:56;100393.06;;;7.27;64.61
77023;BME280;65952;51.440;-2.054;2023-04-26T06:56:25;100390.75;;;7.52;64.26
77023;BME280;65952;51.440;-2.054;2023-04-26T06:59:04;100390.09;;;7.68;63.61
77023;BME280;65952;51.440;-2.054;2023-04-26T07:01:31;100399.66;;;7.98;62.53
77023;BME280;65952;51.440;-2.054;2023-04-26T07:04:03;100394.22;;;8.36;61.90
77023;BME280;65952;51.440;-2.054;2023-04-26T07:06:31;100386.78;;;8.58;61.01
77023;BME280;65952;51.440;-2.054;2023-04-26T07:08:57;100395.25;;;8.71;60.58
77023;BME280;65952;51.440;-2.054;2023-04-26T07:11:23;100391.72;;;8.89;60.02
77023;BME280;65952;51.440;-2.054;2023-04-26T07:13:49;100406.53;;;9.01;59.49
77023;BME280;65952;51.440;-2.054;2023-04-26T07:16:15;100397.03;;;8.81;60.06
77023;BME280;65952;51.440;-2.054;2023-04-26T07:18:40;100395.88;;;8.83;59.84
77023;BME280;65952;51.440;-2.054;2023-04-26T07:21:05;100394.72;;;8.86;60.09
77023;BME280;65952;51.440;-2.054;2023-04-26T07:23:31;100391.38;;;8.66;60.69
77023;BME280;65952;51.440;-2.054;2023-04-26T07:25:57;100392.28;;;8.74;60.81
77023;BME280;65952;51.440;-2.054;2023-04-26T07:28:22;100391.19;;;9.03;60.03
77023;BME280;65952;51.440;-2.054;2023-04-26T07:30:47;100387.53;;;9.13;60.32
77023;BME280;65952;51.440;-2.054;2023-04-26T07:33:13;100391.44;;;8.92;59.76
77023;BME280;65952;51.440;-2.054;2023-04-26T07:35:38;100395.41;;;9.14;59.88
77023;BME280;65952;51.440;-2.054;2023-04-26T07:38:03;100390.69;;;9.34;59.64
77023;BME280;65952;51.440;-2.054;2023-04-26T07:40:29;100383.91;;;9.83;58.79
77023;BME280;65952;51.440;-2.054;2023-04-26T07:42:55;100382.81;;;10.53;56.87
77023;BME280;65952;51.440;-2.054;2023-04-26T07:45:21;100378.53;;;11.41;53.41
77023;BME280;65952;51.440;-2.054;2023-04-26T07:47:46;100377.31;;;11.52;53.56
77023;BME280;65952;51.440;-2.054;2023-04-26T07:50:12;100391.81;;;11.43;52.91
77023;BME280;65952;51.440;-2.054;2023-04-26T07:52:38;100379.41;;;11.25;53.79
77023;BME280;65952;51.440;-2.054;2023-04-26T07:55:04;100385.25;;;12.01;52.45
77023;BME280;65952;51.440;-2.054;2023-04-26T07:57:30;100381.47;;;12.65;51.04
77023;BME280;65952;51.440;-2.054;2023-04-26T07:59:56;100380.97;;;13.08;49.14
77023;BME280;65952;51.440;-2.054;2023-04-26T08:02:21;100384.66;;;13.45;48.08
77023;BME280;65952;51.440;-2.054;2023-04-26T08:04:48;100377.78;;;14.24;46.51
77023;BME280;65952;51.440;-2.054;2023-04-26T08:07:14;100381.75;;;15.43;44.05
77023;BME280;65952;51.440;-2.054;2023-04-26T08:09:40;100370.53;;;15.82;42.60
77023;BME280;65952;51.440;-2.054;2023-04-26T08:12:06;100376.19;;;14.95;43.99
77023;BME280;65952;51.440;-2.054;2023-04-26T08:14:33;100377.81;;;14.89;45.12
77023;BME280;65952;51.440;-2.054;2023-04-26T08:16:59;100376.75;;;16.37;42.00
77023;BME280;65952;51.440;-2.054;2023-04-26T08:19:26;100368.66;;;16.44;41.10
77023;BME280;65952;51.440;-2.054;2023-04-26T08:21:55;100368.31;;;17.01;40.87
77023;BME280;65952;51.440;-2.054;2023-04-26T08:24:20;100378.75;;;17.31;39.87
77023;BME280;65952;51.440;-2.054;2023-04-26T08:26:45;100381.22;;;16.72;41.33
77023;BME280;65952;51.440;-2.054;2023-04-26T08:29:11;100374.34;;;16.89;40.64
77023;BME280;65952;51.440;-2.054;2023-04-26T08:31:36;100374.88;;;16.31;41.18
77023;BME280;65952;51.440;-2.054;2023-04-26T08:34:02;100390.59;;;16.01;42.72
77023;BME280;65952;51.440;-2.054;2023-04-26T08:36:27;100386.66;;;15.68;42.62
77023;BME280;65952;51.440;-2.054;2023-04-26T08:38:52;100387.06;;;14.58;45.48
77023;BME280;65952;51.440;-2.054;2023-04-26T08:41:21;100380.50;;;14.46;46.45
77023;BME280;65952;51.440;-2.054;2023-04-26T08:43:48;100381.91;;;14.42;46.94
77023;BME280;65952;51.440;-2.054;2023-04-26T08:46:14;100387.81;;;13.79;47.51
77023;BME280;65952;51.440;-2.054;2023-04-26T08:48:46;100387.13;;;13.32;48.90
77023;BME280;65952;51.440;-2.054;2023-04-26T08:51:14;100389.91;;;12.62;50.91
77023;BME280;65952;51.440;-2.054;2023-04-26T08:53:41;100400.59;;;12.24;51.94
77023;BME280;65952;51.440;-2.054;2023-04-26T08:56:09;100383.06;;;11.97;53.28
77023;BME280;65952;51.440;-2.054;2023-04-26T08:58:36;100399.25;;;11.80;53.64
77023;BME280;65952;51.440;-2.054;2023-04-26T09:01:02;100395.44;;;11.58;54.59
77023;BME280;65952;51.440;-2.054;2023-04-26T09:03:29;100395.84;;;11.30;55.12
77023;BME280;65952;51.440;-2.054;2023-04-26T09:05:55;100398.56;;;11.05;55.69
77023;BME280;65952;51.440;-2.054;2023-04-26T09:08:20;100396.91;;;10.88;56.61
77023;BME280;65952;51.440;-2.054;2023-04-26T09:10:46;100399.22;;;10.66;57.60
77023;BME280;65952;51.440;-2.054;2023-04-26T09:13:12;100396.53;;;10.42;58.02
77023;BME280;65952;51.440;-2.054;2023-04-26T09:15:38;100400.63;;;10.19;59.00
77023;BME280;65952;51.440;-2.054;2023-04-26T09:18:22;100396.53;;;10.42;58.28
77023;BME280;65952;51.440;-2.054;2023-04-26T09:23:27;100404.31;;;10.18;58.95
77023;BME280;65952;51.440;-2.054;2023-04-26T09:25:52;100398.03;;;10.36;58.70
77023;BME280;65952;51.440;-2.054;2023-04-26T09:28:19;100403.25;;;10.46;58.73
77023;BME280;65952;51.440;-2.054;2023-04-26T09:30:45;100405.59;;;11.40;56.89
77023;BME280;65952;51.440;-2.054;2023-04-26T09:33:11;100401.78;;;12.22;53.79
77023;BME280;65952;51.440;-2.054;2023-04-26T09:35:38;100404.19;;;12.16;53.42
77023;BME280;65952;51.440;-2.054;2023-04-26T09:40:44;100405.50;;;12.21;53.87
77023;BME280;65952;51.440;-2.054;2023-04-26T09:43:17;100401.31;;;12.18;54.26
77023;BME280;65952;51.440;-2.054;2023-04-26T09:45:44;100394.34;;;12.24;53.43
77023;BME280;65952;51.440;-2.054;2023-04-26T09:50:47;100395.22;;;12.94;52.39
77023;BME280;65952;51.440;-2.054;2023-04-26T09:53:34;100392.25;;;13.42;51.22
77023;BME280;65952;51.440;-2.054;2023-04-26T09:56:12;100395.81;;;13.72;50.37
77023;BME280;65952;51.440;-2.054;2023-04-26T10:01:06;100387.25;;;13.39;52.02
77023;BME280;65952;51.440;-2.054;2023-04-26T10:03:34;100398.75;;;13.32;51.00
77023;BME280;65952;51.440;-2.054;2023-04-26T10:05:59;100384.97;;;13.27;51.15
77023;BME280;65952;51.440;-2.054;2023-04-26T10:08:26;100385.94;;;13.64;50.39
77023;BME280;65952;51.440;-2.054;2023-04-26T10:10:53;100391.78;;;13.98;50.08
77023;BME280;65952;51.440;-2.054;2023-04-26T10:13:18;100392.44;;;14.15;49.76
77023;BME280;65952;51.440;-2.054;2023-04-26T10:15:44;100380.28;;;13.74;50.02
77023;BME280;65952;51.440;-2.054;2023-04-26T10:18:11;100383.91;;;13.67;50.49
77023;BME280;65952;51.440;-2.054;2023-04-26T10:20:42;100389.69;;;13.48;51.15
77023;BME280;65952;51.440;-2.054;2023-04-26T10:23:21;100387.09;;;12.79;52.31
77023;BME280;65952;51.440;-2.054;2023-04-26T10:25:50;100382.50;;;12.64;52.66
77023;BME280;65952;51.440;-2.054;2023-04-26T10:28:17;100377.53;;;12.53;53.43
77023;BME280;65952;51.440;-2.054;2023-04-26T10:30:56;100386.88;;;12.65;53.69
77023;BME280;65952;51.440;-2.054;2023-04-26T10:33:24;100383.50;;;12.63;53.12
77023;BME280;65952;51.440;-2.054;2023-04-26T10:36:10;100387.28;;;12.54;53.56
77023;BME280;65952;51.440;-2.054;2023-04-26T10:38:37;100378.06;;;12.72;53.14
77023;BME280;65952;51.440;-2.054;2023-04-26T10:41:37;100379.75;;;13.11;52.89
77023;BME280;65952;51.440;-2.054;2023-04-26T10:44:39;100383.97;;;13.28;52.30
77023;BME280;65952;51.440;-2.054;2023-04-26T10:47:10;100378.16;;;13.40;51.55
77023;BME280;65952;51.440;-2.054;2023-04-26T10:49:45;100375.16;;;12.96;52.27
77023;BME280;65952;51.440;-2.054;2023-04-26T10:52:22;100378.22;;;12.93;52.93
77023;BME280;65952;51.440;-2.054;2023-04-26T10:54:56;100376.88;;;12.74;54.07
77023;BME280;65952;51.440;-2.054;2023-04-26T10:57:23;100372.34;;;12.51;54.56
77023;BME280;65952;51.440;-2.054;2023-04-26T11:05:35;100364.34;;;12.81;53.74
77023;BME280;65952;51.440;-2.054;2023-04-26T11:08:18;100364.81;;;12.85;53.07
77023;BME280;65952;51.440;-2.054;2023-04-26T11:13:46;100363.47;;;12.66;53.16
77023;BME280;65952;51.440;-2.054;2023-04-26T11:16:15;100366.34;;;12.64;53.77
77023;BME280;65952;51.440;-2.054;2023-04-26T11:18:45;100371.28;;;12.52;54.48
77023;BME280;65952;51.440;-2.054;2023-04-26T11:21:11;100375.66;;;12.54;54.67
77023;BME280;65952;51.440;-2.054;2023-04-26T11:23:41;100369.22;;;12.63;54.35
77023;BME280;65952;51.440;-2.054;2023-04-26T11:26:07;100373.19;;;12.44;53.86
77023;BME280;65952;51.440;-2.054;2023-04-26T11:28:37;100378.75;;;12.19;55.57
77023;BME280;65952;51.440;-2.054;2023-04-26T11:31:04;100384.63;;;12.23;55.40
77023;BME280;65952;51.440;-2.054;2023-04-26T11:33:31;100379.47;;;12.13;55.22
77023;BME280;65952;51.440;-2.054;2023-04-26T11:35:58;100383.56;;;12.00;55.30
77023;BME280;65952;51.440;-2.054;2023-04-26T11:38:25;100379.31;;;12.06;56.03
77023;BME280;65952;51.440;-2.054;2023-04-26T11:41:01;100364.22;;;12.28;55.73
77023;BME280;65952;51.440;-2.054;2023-04-26T11:43:34;100361.84;;;12.57;54.25
77023;BME280;65952;51.440;-2.054;2023-04-26T11:46:01;100358.25;;;12.64;54.10
77023;BME280;65952;51.440;-2.054;2023-04-26T11:48:27;100360.03;;;12.72;53.81
77023;BME280;65952;51.440;-2.054;2023-04-26T11:50:56;100358.41;;;12.86;54.37
77023;BME280;65952;51.440;-2.054;2023-04-26T11:53:21;100357.69;;;12.92;53.65
77023;BME280;65952;51.440;-2.054;2023-04-26T11:55:47;100356.28;;;12.96;53.75
77023;BME280;65952;51.440;-2.054;2023-04-26T11:58:13;100356.97;;;13.13;53.23
77023;BME280;65952;51.440;-2.054;2023-04-26T12:00:55;100351.47;;;13.07;53.63
77023;BME280;65952;51.440;-2.054;2023-04-26T12:03:21;100345.31;;;12.98;54.31
77023;BME280;65952;51.440;-2.054;2023-04-26T12:05:53;100345.94;;;12.85;54.10
77023;BME280;65952;51.440;-2.054;2023-04-26T12:08:23;100344.53;;;12.51;55.45
77023;BME280;65952;51.440;-2.054;2023-04-26T12:10:49;100338.50;;;12.49;55.69
77023;BME280;65952;51.440;-2.054;2023-04-26T12:13:14;100345.31;;;12.60;55.99
77023;BME280;65952;51.440;-2.054;2023-04-26T12:15:41;100342.44;;;12.61;54.68
77023;BME280;65952;51.440;-2.054;2023-04-26T12:18:08;100340.38;;;12.72;54.76
77023;BME280;65952;51.440;-2.054;2023-04-26T12:20:38;100338.56;;;13.02;54.63
77023;BME280;65952;51.440;-2.054;2023-04-26T12:23:09;100340.84;;;12.90;54.35
77023;BME280;65952;51.440;-2.054;2023-04-26T12:25:36;100339.31;;;12.73;54.93
77023;BME280;65952;51.440;-2.054;2023-04-26T12:28:05;100341.81;;;12.97;54.82
77023;BME280;65952;51.440;-2.054;2023-04-26T12:30:32;100337.91;;;13.15;54.25
77023;BME280;65952;51.440;-2.054;2023-04-26T12:32:58;100342.19;;;13.24;54.47
77023;BME280;65952;51.440;-2.054;2023-04-26T12:35:24;100340.06;;;13.05;54.29
77023;BME280;65952;51.440;-2.054;2023-04-26T12:37:50;100338.59;;;13.17;53.75
77023;BME280;65952;51.440;-2.054;2023-04-26T12:40:18;100338.41;;;13.33;53.33
77023;BME280;65952;51.440;-2.054;2023-04-26T12:42:46;100343.38;;;13.45;53.01
77023;BME280;65952;51.440;-2.054;2023-04-26T12:45:12;100338.78;;;13.75;52.91
77023;BME280;65952;51.440;-2.054;2023-04-26T12:47:37;100335.50;;;13.20;53.55
77023;BME280;65952;51.440;-2.054;2023-04-26T12:50:03;100328.41;;;13.57;53.68
77023;BME280;65952;51.440;-2.054;2023-04-26T12:52:29;100330.72;;;13.45;54.13
77023;BME280;65952;51.440;-2.054;2023-04-26T12:54:55;100322.25;;;13.63;53.31
77023;BME280;65952;51.440;-2.054;2023-04-26T12:57:20;100327.16;;;13.75;53.51
77023;BME280;65952;51.440;-2.054;2023-04-26T12:59:46;100331.63;;;13.68;53.16
77023;BME280;65952;51.440;-2.054;2023-04-26T13:02:12;100325.38;;;13.67;53.64